Time;durP1;ratioP1;P1;durP2;ratioP2;P2;SDS_P1;SDS_P2;PMS_P1;PMS_P2;Temp;Humidity;BMP_temperature;BMP_pressure;BME280_temperature;BME280_humidity;BME280_pressure;Samples;Min_cycle;Max_cycle;Signal;HPM_P1;HPM_P2
2023/04/25 00:01:17;;;;;;;2.47;1.58;;;;;;;;;;5156177;27;20030;-77
2023/04/25 00:03:43;;;;;;;2.28;1.45;;;;;;;;;;5156350;27;20500;-77
2023/04/25 00:06:08;;;;;;;6.65;1.70;;;;;;;;;;5156449;27;20026;-78
2023/04/25 00:08:34;;;;;;;2.58;1.40;;;;;;;;;;5156522;27;20356;-74
2023/04/25 00:11:00;;;;;;;6.88;2.10;;;;;;;;;;5156313;27;20532;-74
2023/04/25 00:13:26;;;;;;;3.28;1.60;;;;;;;;;;5156185;27;20042;-74
2023/04/25 00:15:52;;;;;;;3.03;1.80;;;;;;;;;;5155456;27;20392;-77
2023/04/25 00:18:19;;;;;;;6.25;1.52;;;;;;;;;;5156262;27;20034;-78
2023/04/25 00:20:44;;;;;;;2.60;1.58;;;;;;;;;;5156110;27;20019;-72
2023/04/25 00:23:10;;;;;;;5.28;1.77;;;;;;;;;;5155893;27;20022;-74
2023/04/25 00:25:35;;;;;;;6.65;2.15;;;;;;;;;;5156146;27;20026;-77
2023/04/25 00:28:01;;;;;;;6.07;2.25;;;;;;;;;;5156220;27;20051;-76
2023/04/25 00:30:26;;;;;;;5.07;2.50;;;;;;;;;;5156036;27;20045;-77
2023/04/25 00:32:52;;;;;;;2.88;1.90;;;;;;;;;;5142032;27;20050;-76
2023/04/25 00:35:17;;;;;;;4.82;2.17;;;;;;;;;;5134914;27;20386;-77
2023/04/25 00:37:43;;;;;;;3.15;1.80;;;;;;;;;;5135073;27;20019;-77
2023/04/25 00:40:09;;;;;;;4.07;2.22;;;;;;;;;;5135254;27;20098;-78
2023/04/25 00:42:36;;;;;;;3.28;1.92;;;;;;;;;;5132979;27;20477;-75
2023/04/25 00:45:05;;;;;;;3.38;1.90;;;;;;;;;;5125774;27;20042;-76
2023/04/25 00:47:31;;;;;;;2.75;1.90;;;;;;;;;;5134900;27;20385;-78
2023/04/25 00:49:56;;;;;;;2.75;1.73;;;;;;;;;;5135075;27;20027;-77
2023/04/25 00:52:22;;;;;;;2.60;1.80;;;;;;;;;;5134700;27;20030;-75
2023/04/25 00:54:47;;;;;;;8.07;2.00;;;;;;;;;;5134275;27;20029;-73
2023/04/25 00:57:13;;;;;;;4.13;2.03;;;;;;;;;;5134781;27;20072;-78
2023/04/25 00:59:44;;;;;;;3.10;1.92;;;;;;;;;;5134189;27;20106;-78
2023/04/25 01:02:09;;;;;;;2.78;1.90;;;;;;;;;;5135012;27;20030;-78
2023/04/25 01:04:34;;;;;;;6.18;2.00;;;;;;;;;;5134231;27;20031;-77
2023/04/25 01:07:00;;;;;;;2.78;2.10;;;;;;;;;;5133700;27;20023;-77
2023/04/25 01:09:25;;;;;;;4.25;2.30;;;;;;;;;;5133599;27;20427;-77
2023/04/25 01:11:51;;;;;;;5.30;2.13;;;;;;;;;;5132868;27;20025;-77
2023/04/25 01:14:16;;;;;;;4.25;2.20;;;;;;;;;;5135133;27;20445;-76
2023/04/25 01:16:42;;;;;;;3.80;2.17;;;;;;;;;;5133073;27;20040;-77
2023/04/25 01:19:13;;;;;;;5.35;2.30;;;;;;;;;;5132705;27;20019;-77
2023/04/25 01:21:38;;;;;;;;;;;;;;;;;;5131469;27;20019;-77
2023/04/25 01:24:05;;;;;;;3.00;2.00;;;;;;;;;;5132941;27;19919;-77
2023/04/25 01:26:33;;;;;;;3.75;2.30;;;;;;;;;;5132314;27;20441;-78
2023/04/25 01:28:59;;;;;;;5.20;2.42;;;;;;;;;;5132980;27;20595;-75
2023/04/25 01:31:25;;;;;;;6.72;2.65;;;;;;;;;;5132681;27;20507;-78
2023/04/25 01:33:51;;;;;;;5.10;2.60;;;;;;;;;;5132599;27;20035;-78
2023/04/25 01:36:17;;;;;;;4.13;2.45;;;;;;;;;;5132639;27;20375;-78
2023/04/25 01:38:43;;;;;;;4.93;2.70;;;;;;;;;;5132708;27;20023;-70
2023/04/25 01:41:09;;;;;;;6.90;3.08;;;;;;;;;;5132403;27;20034;-77
2023/04/25 01:43:35;;;;;;;5.13;2.92;;;;;;;;;;5133247;27;20087;-77
2023/04/25 01:46:01;;;;;;;3.45;2.33;;;;;;;;;;5134028;27;20469;-77
2023/04/25 01:48:26;;;;;;;3.75;2.80;;;;;;;;;;5134092;27;20026;-76
2023/04/25 01:50:52;;;;;;;5.30;2.80;;;;;;;;;;5133010;27;20449;-77
2023/04/25 01:53:17;;;;;;;5.28;2.85;;;;;;;;;;5134082;27;20466;-78
2023/04/25 01:55:43;;;;;;;4.65;3.00;;;;;;;;;;5133746;27;20027;-75
2023/04/25 01:58:09;;;;;;;6.10;2.90;;;;;;;;;;5134358;27;20032;-73
2023/04/25 02:00:38;;;;;;;5.10;2.55;;;;;;;;;;5134000;27;20027;-77
2023/04/25 02:03:04;;;;;;;6.78;3.10;;;;;;;;;;5134047;27;20080;-77
2023/04/25 02:05:35;;;;;;;7.20;2.88;;;;;;;;;;5134067;27;20019;-77
2023/04/25 02:08:00;;;;;;;4.22;2.90;;;;;;;;;;5133945;28;20024;-77
2023/04/25 02:10:26;;;;;;;5.30;2.83;;;;;;;;;;5133610;27;20031;-77
2023/04/25 02:12:51;;;;;;;5.57;2.85;;;;;;;;;;5133930;27;20097;-74
2023/04/25 02:15:17;;;;;;;5.22;2.75;;;;;;;;;;5133497;27;20028;-72
2023/04/25 02:17:42;;;;;;;4.85;2.60;;;;;;;;;;5133803;27;20027;-76
2023/04/25 02:20:08;;;;;;;4.05;2.45;;;;;;;;;;5132591;27;20028;-77
2023/04/25 02:22:35;;;;;;;4.30;2.70;;;;;;;;;;5133567;27;20023;-77
2023/04/25 02:25:00;;;;;;;4.97;2.47;;;;;;;;;;5133410;27;20030;-78
2023/04/25 02:27:26;;;;;;;4.40;2.92;;;;;;;;;;5133532;27;20388;-78
2023/04/25 02:29:51;;;;;;;5.70;2.70;;;;;;;;;;5133270;27;20326;-72
2023/04/25 02:32:17;;;;;;;5.75;2.95;;;;;;;;;;5133214;27;20039;-75
2023/04/25 02:34:42;;;;;;;5.72;2.60;;;;;;;;;;5133202;27;20397;-77
2023/04/25 02:37:08;;;;;;;9.65;2.65;;;;;;;;;;5133288;27;20030;-75
2023/04/25 02:39:33;;;;;;;6.30;2.10;;;;;;;;;;5137497;27;20346;-75
2023/04/25 02:41:58;;;;;;;5.85;2.58;;;;;;;;;;5137559;27;20473;-77
2023/04/25 02:44:24;;;;;;;4.82;2.40;;;;;;;;;;5137253;27;20027;-77
2023/04/25 02:46:49;;;;;;;4.43;2.30;;;;;;;;;;5137448;27;20031;-77
2023/04/25 02:49:15;;;;;;;4.55;2.38;;;;;;;;;;5137665;27;20034;-77
2023/04/25 02:51:40;;;;;;;5.75;2.40;;;;;;;;;;5135891;27;20025;-69
2023/04/25 02:54:06;;;;;;;4.10;2.17;;;;;;;;;;5136878;27;20038;-74
2023/04/25 02:56:31;;;;;;;6.07;2.53;;;;;;;;;;5136967;27;20030;-72
2023/04/25 02:58:57;;;;;;;5.13;2.17;;;;;;;;;;5136978;27;20019;-75
2023/04/25 03:01:22;;;;;;;4.57;2.22;;;;;;;;;;5137273;27;20034;-77
2023/04/25 03:03:48;;;;;;;6.72;2.08;;;;;;;;;;5136880;27;20350;-65
2023/04/25 03:06:15;;;;;;;4.10;1.95;;;;;;;;;;5137033;27;20027;-77
2023/04/25 03:08:40;;;;;;;4.53;2.20;;;;;;;;;;5136444;27;20473;-77
2023/04/25 03:11:06;;;;;;;8.02;2.20;;;;;;;;;;5136577;27;20102;-70
2023/04/25 03:13:31;;;;;;;5.97;1.92;;;;;;;;;;5136702;27;20110;-74
2023/04/25 03:15:56;;;;;;;9.35;2.42;;;;;;;;;;5136595;27;20317;-77
2023/04/25 03:18:22;;;;;;;5.72;2.40;;;;;;;;;;5136593;27;20015;-76
2023/04/25 03:20:47;;;;;;;5.30;2.58;;;;;;;;;;5136593;27;20118;-69
2023/04/25 03:23:14;;;;;;;4.72;2.30;;;;;;;;;;5136235;27;20047;-70
2023/04/25 03:25:39;;;;;;;3.65;2.50;;;;;;;;;;5136418;27;20020;-76
2023/04/25 03:28:05;;;;;;;4.85;2.33;;;;;;;;;;5136370;27;20079;-77
2023/04/25 03:30:30;;;;;;;3.55;2.22;;;;;;;;;;5136058;27;20015;-77
2023/04/25 03:32:55;;;;;;;6.05;2.20;;;;;;;;;;5135848;27;20542;-73
2023/04/25 03:35:22;;;;;;;7.32;2.95;;;;;;;;;;5137490;27;20419;-75
2023/04/25 03:37:48;;;;;;;4.93;2.50;;;;;;;;;;5156725;27;20029;-70
2023/04/25 03:40:13;;;;;;;8.70;3.47;;;;;;;;;;5156802;27;20102;-76
2023/04/25 03:42:39;;;;;;;6.00;2.30;;;;;;;;;;5156437;27;20026;-77
2023/04/25 03:45:05;;;;;;;5.40;2.58;;;;;;;;;;5156753;27;20022;-73
2023/04/25 03:47:30;;;;;;;6.38;2.40;;;;;;;;;;5156601;27;20101;-69
2023/04/25 03:49:56;;;;;;;5.40;2.50;;;;;;;;;;5156230;27;20076;-77
2023/04/25 03:52:21;;;;;;;5.55;2.80;;;;;;;;;;5156371;27;20031;-74
2023/04/25 03:54:46;;;;;;;4.55;2.50;;;;;;;;;;5156779;27;20034;-76
2023/04/25 03:57:12;;;;;;;5.32;2.70;;;;;;;;;;5156473;27;20075;-77
2023/04/25 03:59:37;;;;;;;6.50;2.92;;;;;;;;;;5156285;27;20022;-70
2023/04/25 04:02:03;;;;;;;5.72;2.58;;;;;;;;;;5156359;27;20053;-77
2023/04/25 04:04:28;;;;;;;5.68;2.95;;;;;;;;;;5156342;27;20019;-77
2023/04/25 04:06:54;;;;;;;8.32;2.47;;;;;;;;;;5156410;27;20023;-77
2023/04/25 04:09:20;;;;;;;6.00;2.58;;;;;;;;;;5156479;27;20413;-78
2023/04/25 04:11:45;;;;;;;10.32;2.88;;;;;;;;;;5156251;27;20108;-75
2023/04/25 04:14:11;;;;;;;5.60;2.60;;;;;;;;;;5156360;27;20027;-77
2023/04/25 04:16:36;;;;;;;4.38;2.55;;;;;;;;;;5156410;27;20031;-78
2023/04/25 04:19:02;;;;;;;4.25;2.33;;;;;;;;;;5156422;27;20369;-76
2023/04/25 04:21:28;;;;;;;5.20;2.65;;;;;;;;;;5155771;27;20019;-77
2023/04/25 04:23:54;;;;;;;6.85;2.58;;;;;;;;;;5155988;27;20038;-75
2023/04/25 04:26:23;;;;;;;6.32;2.78;;;;;;;;;;5156389;27;20038;-77
2023/04/25 04:28:54;;;;;;;7.75;2.40;;;;;;;;;;5155792;27;20032;-77
2023/04/25 04:31:20;;;;;;;6.05;2.45;;;;;;;;;;5155474;27;20027;-76
2023/04/25 04:33:46;;;;;;;4.90;2.40;;;;;;;;;;5134785;27;20478;-77
2023/04/25 04:36:12;;;;;;;7.30;2.72;;;;;;;;;;5134936;27;20374;-76
2023/04/25 04:38:37;;;;;;;6.05;2.85;;;;;;;;;;5135002;27;20134;-76
2023/04/25 04:41:03;;;;;;;7.78;2.70;;;;;;;;;;5134842;27;20027;-77
2023/04/25 04:43:29;;;;;;;8.48;2.63;;;;;;;;;;5134777;27;20027;-75
2023/04/25 04:45:56;;;;;;;5.38;2.60;;;;;;;;;;5134782;27;20031;-78
2023/04/25 04:48:22;;;;;;;8.43;3.00;;;;;;;;;;5134619;27;20023;-78
2023/04/25 04:50:48;;;;;;;5.88;2.97;;;;;;;;;;5134591;27;20027;-77
2023/04/25 04:53:13;;;;;;;9.30;3.20;;;;;;;;;;5135073;27;20047;-77
2023/04/25 04:55:40;;;;;;;10.73;3.05;;;;;;;;;;5134970;27;20481;-78
2023/04/25 04:58:06;;;;;;;7.38;2.95;;;;;;;;;;5134715;27;20031;-77
2023/04/25 05:00:32;;;;;;;6.75;2.80;;;;;;;;;;5134111;27;20266;-76
2023/04/25 05:02:58;;;;;;;8.55;3.03;;;;;;;;;;5134202;27;20024;-78
2023/04/25 05:05:24;;;;;;;7.18;3.63;;;;;;;;;;5134473;27;20031;-77
2023/04/25 05:07:50;;;;;;;6.70;2.95;;;;;;;;;;5134783;27;20023;-75
2023/04/25 05:10:15;;;;;;;7.28;2.53;;;;;;;;;;5134769;27;20027;-77
2023/04/25 05:12:40;;;;;;;7.53;2.95;;;;;;;;;;5134207;27;20035;-77
2023/04/25 05:15:06;;;;;;;7.65;3.15;;;;;;;;;;5134265;27;20023;-75
2023/04/25 05:17:32;;;;;;;5.97;3.15;;;;;;;;;;5134200;27;20038;-77
2023/04/25 05:19:58;;;;;;;6.00;3.20;;;;;;;;;;5133966;27;20397;-77
2023/04/25 05:22:23;;;;;;;7.63;2.97;;;;;;;;;;5134005;27;20034;-75
2023/04/25 05:24:49;;;;;;;5.60;2.95;;;;;;;;;;5134348;27;20024;-77
2023/04/25 05:27:17;;;;;;;4.22;2.80;;;;;;;;;;5133984;27;20020;-76
2023/04/25 05:29:42;;;;;;;6.57;3.08;;;;;;;;;;5134284;27;20027;-74
2023/04/25 05:32:09;;;;;;;9.48;3.28;;;;;;;;;;5134285;27;20530;-77
2023/04/25 05:34:34;;;;;;;5.53;2.90;;;;;;;;;;5113534;28;20035;-77
2023/04/25 05:37:00;;;;;;;7.80;3.13;;;;;;;;;;5130474;27;20031;-76
2023/04/25 05:39:26;;;;;;;4.93;3.00;;;;;;;;;;5133774;27;20107;-76
2023/04/25 05:41:52;;;;;;;5.82;3.03;;;;;;;;;;5134075;27;20039;-74
2023/04/25 05:44:17;;;;;;;9.05;3.45;;;;;;;;;;5134231;27;20107;-77
2023/04/25 05:46:43;;;;;;;6.60;3.03;;;;;;;;;;5133862;27;20027;-76
2023/04/25 05:49:09;;;;;;;7.07;3.25;;;;;;;;;;5133705;27;20026;-76
2023/04/25 05:51:34;;;;;;;7.22;2.97;;;;;;;;;;5133761;27;20101;-76
2023/04/25 05:54:00;;;;;;;6.28;3.10;;;;;;;;;;5133960;27;20027;-74
2023/04/25 05:56:25;;;;;;;9.60;3.22;;;;;;;;;;5133497;27;20035;-72
2023/04/25 05:58:51;;;;;;;12.02;4.22;;;;;;;;;;5133403;27;20070;-74
2023/04/25 06:01:16;;;;;;;4.63;2.78;;;;;;;;;;5133651;27;20023;-75
2023/04/25 06:03:44;;;;;;;9.45;3.20;;;;;;;;;;5133579;27;20038;-76
2023/04/25 06:06:11;;;;;;;8.27;3.00;;;;;;;;;;5133720;27;20026;-75
2023/04/25 06:08:38;;;;;;;7.43;2.83;;;;;;;;;;5133992;27;20073;-75
2023/04/25 06:11:04;;;;;;;8.50;2.72;;;;;;;;;;5133647;27;20027;-74
2023/04/25 06:13:29;;;;;;;6.28;2.90;;;;;;;;;;5136987;27;20115;-74
2023/04/25 06:15:55;;;;;;;5.90;2.65;;;;;;;;;;5138172;27;20525;-74
2023/04/25 06:18:20;;;;;;;7.65;2.80;;;;;;;;;;5137615;27;20068;-74
2023/04/25 06:20:46;;;;;;;9.60;5.55;;;;;;;;;;5137585;27;20023;-76
2023/04/25 06:23:11;;;;;;;5.97;2.72;;;;;;;;;;5138789;27;20027;-78
2023/04/25 06:25:37;;;;;;;5.30;2.67;;;;;;;;;;5137814;27;20027;-70
2023/04/25 06:28:02;;;;;;;7.72;2.80;;;;;;;;;;5137788;27;20075;-76
2023/04/25 06:30:28;;;;;;;8.63;2.28;;;;;;;;;;5137093;27;20023;-73
2023/04/25 06:32:53;;;;;;;6.93;3.40;;;;;;;;;;5136675;27;20045;-65
2023/04/25 06:35:19;;;;;;;8.95;2.70;;;;;;;;;;5137613;27;20063;-72
2023/04/25 06:37:44;;;;;;;7.13;2.50;;;;;;;;;;5129361;27;20039;-77
2023/04/25 06:40:11;;;;;;;6.72;2.83;;;;;;;;;;5138714;27;20034;-70
2023/04/25 06:42:36;;;;;;;7.55;3.00;;;;;;;;;;5154040;27;20015;-69
2023/04/25 06:45:02;;;;;;;17.90;3.35;;;;;;;;;;5137110;27;20063;-76
2023/04/25 06:47:29;;;;;;;7.43;3.25;;;;;;;;;;5137059;27;20030;-74
2023/04/25 06:49:55;;;;;;;8.57;3.05;;;;;;;;;;5137162;27;20435;-72
2023/04/25 06:52:20;;;;;;;8.20;2.97;;;;;;;;;;5136941;27;20058;-75
2023/04/25 06:54:46;;;;;;;5.45;2.60;;;;;;;;;;5140995;27;20461;-70
2023/04/25 06:57:11;;;;;;;6.38;3.40;;;;;;;;;;5158172;27;20039;-76
2023/04/25 06:59:37;;;;;;;4.13;2.22;;;;;;;;;;5157762;27;20380;-66
2023/04/25 07:02:03;;;;;;;10.60;3.35;;;;;;;;;;5157437;27;20042;-74
2023/04/25 07:04:28;;;;;;;8.07;3.58;;;;;;;;;;5157552;27;20498;-77
2023/04/25 07:06:54;;;;;;;7.40;3.47;;;;;;;;;;5157622;27;20027;-77
2023/04/25 07:09:20;;;;;;;13.10;3.70;;;;;;;;;;5157876;27;20022;-74
2023/04/25 07:11:45;;;;;;;6.65;3.60;;;;;;;;;;5157538;27;20034;-77
2023/04/25 07:14:11;;;;;;;7.07;3.05;;;;;;;;;;5157508;27;20484;-75
2023/04/25 07:16:36;;;;;;;4.40;2.88;;;;;;;;;;5151828;27;20051;-75
2023/04/25 07:19:02;;;;;;;5.05;3.22;;;;;;;;;;5122627;27;20050;-74
2023/04/25 07:21:27;;;;;;;7.15;3.65;;;;;;;;;;5129709;27;20067;-71
2023/04/25 07:23:53;;;;;;;9.43;3.05;;;;;;;;;;5135029;27;20027;-79
2023/04/25 07:26:18;;;;;;;9.63;2.97;;;;;;;;;;5136327;27;20049;-72
2023/04/25 07:28:44;;;;;;;6.70;2.75;;;;;;;;;;5136618;27;20488;-73
2023/04/25 07:31:09;;;;;;;5.47;2.90;;;;;;;;;;5138687;27;20023;-74
2023/04/25 07:33:35;;;;;;;7.35;2.30;;;;;;;;;;5136828;27;20122;-68
2023/04/25 07:36:00;;;;;;;5.43;1.90;;;;;;;;;;5136212;27;20062;-66
2023/04/25 07:38:26;;;;;;;13.45;2.70;;;;;;;;;;5136242;27;20484;-74
2023/04/25 07:40:52;;;;;;;5.45;2.78;;;;;;;;;;5136398;27;20213;-77
2023/04/25 07:43:17;;;;;;;9.73;2.92;;;;;;;;;;5136217;27;20106;-74
2023/04/25 07:45:43;;;;;;;6.70;3.30;;;;;;;;;;5135757;27;20353;-77
2023/04/25 07:48:09;;;;;;;8.13;3.80;;;;;;;;;;5136240;27;20121;-74
2023/04/25 07:50:35;;;;;;;7.10;2.72;;;;;;;;;;5135432;27;20023;-66
2023/04/25 07:53:01;;;;;;;9.02;3.20;;;;;;;;;;5136225;27;20034;-76
2023/04/25 07:55:26;;;;;;;6.20;3.30;;;;;;;;;;5136686;27;20063;-76
2023/04/25 07:57:52;;;;;;;6.97;3.47;;;;;;;;;;5135936;27;20033;-75
2023/04/25 08:00:18;;;;;;;8.15;3.47;;;;;;;;;;5135460;27;20027;-72
2023/04/25 08:02:43;;;;;;;7.63;3.20;;;;;;;;;;5135873;27;20019;-72
2023/04/25 08:05:11;;;;;;;6.55;2.50;;;;;;;;;;5135756;27;20027;-73
2023/04/25 08:07:38;;;;;;;5.68;2.75;;;;;;;;;;5135884;27;20038;-67
2023/04/25 08:10:05;;;;;;;7.43;3.17;;;;;;;;;;5135510;27;20035;-64
2023/04/25 08:12:31;;;;;;;10.98;2.83;;;;;;;;;;5135669;27;20019;-76
2023/04/25 08:14:56;;;;;;;9.45;2.72;;;;;;;;;;5135326;27;20366;-68
2023/04/25 08:17:21;;;;;;;10.02;3.00;;;;;;;;;;5135365;27;20118;-73
2023/04/25 08:19:47;;;;;;;9.05;2.30;;;;;;;;;;5135639;27;20041;-66
2023/04/25 08:22:12;;;;;;;5.20;2.45;;;;;;;;;;5135658;27;20023;-74
2023/04/25 08:24:38;;;;;;;9.75;3.10;;;;;;;;;;5135847;27;20491;-77
2023/04/25 08:27:03;;;;;;;6.82;3.05;;;;;;;;;;5135493;27;20023;-78
2023/04/25 08:29:29;;;;;;;10.18;2.90;;;;;;;;;;5135327;27;20030;-75
2023/04/25 08:31:54;;;;;;;6.15;2.15;;;;;;;;;;5138718;27;20407;-69
2023/04/25 08:34:20;;;;;;;4.88;2.00;;;;;;;;;;5134720;27;20085;-67
2023/04/25 08:36:45;;;;;;;10.18;2.60;;;;;;;;;;5135412;27;20027;-75
2023/04/25 08:39:11;;;;;;;6.50;2.60;;;;;;;;;;5135552;27;20031;-68
2023/04/25 08:41:37;;;;;;;10.18;2.97;;;;;;;;;;5135142;27;20068;-72
2023/04/25 08:44:04;;;;;;;10.35;2.80;;;;;;;;;;5135139;27;20027;-77
2023/04/25 08:46:33;;;;;;;15.07;3.53;;;;;;;;;;5135135;27;20104;-70
2023/04/25 08:49:01;;;;;;;13.98;3.15;;;;;;;;;;5134980;27;20031;-72
2023/04/25 08:51:33;;;;;;;16.25;3.20;;;;;;;;;;5134969;27;20027;-73
2023/04/25 08:54:12;;;;;;;13.93;3.25;;;;;;;;;;5135051;27;20033;-69
2023/04/25 08:56:44;;;;;;;10.95;3.10;;;;;;;;;;5134527;27;20031;-75
2023/04/25 08:59:11;;;;;;;13.57;2.97;;;;;;;;;;5134707;27;20080;-74
2023/04/25 09:01:37;;;;;;;12.82;2.95;;;;;;;;;;5134886;27;20011;-74
2023/04/25 09:04:02;;;;;;;12.77;3.33;;;;;;;;;;5134891;27;20031;-77
2023/04/25 09:06:31;;;;;;;13.05;2.92;;;;;;;;;;5134671;27;20027;-72
2023/04/25 09:09:07;;;;;;;12.45;2.80;;;;;;;;;;5134692;27;20034;-67
2023/04/25 09:11:36;;;;;;;10.02;2.45;;;;;;;;;;5134395;27;20027;-75
2023/04/25 09:14:21;;;;;;;14.48;2.97;;;;;;;;;;5134616;27;20054;-66
2023/04/25 09:16:55;;;;;;;11.43;3.05;;;;;;;;;;5134426;27;20053;-72
2023/04/25 09:19:26;;;;;;;7.47;2.28;;;;;;;;;;5134363;27;20050;-77
2023/04/25 09:21:57;;;;;;;8.88;3.00;;;;;;;;;;5134363;27;20497;-69
2023/04/25 09:24:41;;;;;;;4.90;1.92;;;;;;;;;;5134476;27;20019;-74
2023/04/25 09:27:10;;;;;;;13.77;2.67;;;;;;;;;;5133592;27;20027;-73
2023/04/25 09:29:38;;;;;;;13.75;2.65;;;;;;;;;;5134107;27;20079;-68
2023/04/25 09:32:14;;;;;;;9.48;2.25;;;;;;;;;;5137455;27;20024;-68
2023/04/25 09:34:41;;;;;;;7.93;2.78;;;;;;;;;;5113721;28;20058;-71
2023/04/25 09:37:09;;;;;;;9.90;3.00;;;;;;;;;;5130446;27;20023;-71
2023/04/25 09:39:34;;;;;;;19.27;2.42;;;;;;;;;;5134043;27;20020;-62
2023/04/25 09:42:00;;;;;;;8.00;2.65;;;;;;;;;;5133742;27;20046;-64
2023/04/25 09:44:26;;;;;;;6.85;2.60;;;;;;;;;;5133556;27;20112;-63
2023/04/25 09:46:53;;;;;;;8.43;2.03;;;;;;;;;;5133637;27;20465;-66
2023/04/25 09:49:20;;;;;;;9.63;2.30;;;;;;;;;;5134320;27;20381;-71
2023/04/25 09:51:58;;;;;;;11.82;1.90;;;;;;;;;;5133473;27;20489;-67
2023/04/25 09:54:26;;;;;;;8.52;2.25;;;;;;;;;;5131281;27;20051;-68
2023/04/25 09:56:53;;;;;;;10.75;2.63;;;;;;;;;;5132176;27;20083;-69
2023/04/25 09:59:22;;;;;;;12.07;2.45;;;;;;;;;;5133615;27;20031;-73
2023/04/25 10:01:50;;;;;;;10.88;2.28;;;;;;;;;;5133542;27;20027;-73
2023/04/25 10:04:21;;;;;;;9.57;2.38;;;;;;;;;;5133672;27;20059;-66
2023/04/25 10:06:49;;;;;;;12.02;2.30;;;;;;;;;;5134386;27;20034;-75
2023/04/25 10:09:15;;;;;;;11.93;2.53;;;;;;;;;;5133735;27;20071;-75
2023/04/25 10:11:41;;;;;;;7.40;2.17;;;;;;;;;;5133630;27;20019;-67
2023/04/25 10:14:06;;;;;;;6.85;2.13;;;;;;;;;;5133351;27;20111;-62
2023/04/25 10:16:32;;;;;;;10.02;2.97;;;;;;;;;;5133450;27;20058;-72
2023/04/25 10:18:57;;;;;;;11.43;2.33;;;;;;;;;;5133585;27;20098;-68
2023/04/25 10:21:26;;;;;;;6.40;1.70;;;;;;;;;;5133586;27;20019;-64
2023/04/25 10:23:53;;;;;;;6.40;1.98;;;;;;;;;;5133504;27;20030;-73
2023/04/25 10:26:19;;;;;;;17.63;3.40;;;;;;;;;;5133428;27;20077;-76
2023/04/25 10:28:56;;;;;;;10.73;3.00;;;;;;;;;;5133466;27;20030;-68
2023/04/25 10:31:22;;;;;;;7.30;2.20;;;;;;;;;;5137383;27;20105;-76
2023/04/25 10:33:48;;;;;;;8.38;2.28;;;;;;;;;;5133753;27;20075;-74
2023/04/25 10:36:17;;;;;;;5.68;1.70;;;;;;;;;;5133529;27;20034;-77
2023/04/25 10:38:44;;;;;;;7.15;2.22;;;;;;;;;;5133530;27;20060;-64
2023/04/25 10:41:11;;;;;;;13.50;3.08;;;;;;;;;;5133269;27;20385;-68
2023/04/25 10:43:44;;;;;;;7.88;2.10;;;;;;;;;;5133594;27;20015;-75
2023/04/25 10:46:19;;;;;;;11.48;2.55;;;;;;;;;;5133740;27;20027;-65
2023/04/25 10:48:52;;;;;;;9.68;2.72;;;;;;;;;;5131731;28;20121;-73
2023/04/25 10:51:23;;;;;;;5.97;2.03;;;;;;;;;;5133260;27;20125;-75
2023/04/25 10:53:55;;;;;;;12.80;3.45;;;;;;;;;;5133152;27;20020;-67
2023/04/25 10:56:41;;;;;;;8.30;2.40;;;;;;;;;;5132705;28;20122;-65
2023/04/25 10:59:15;;;;;;;8.63;2.33;;;;;;;;;;5132839;27;20562;-76
2023/04/25 11:01:45;;;;;;;12.45;3.42;;;;;;;;;;5136983;27;20031;-68
2023/04/25 11:04:35;;;;;;;16.98;3.97;;;;;;;;;;5137068;27;20031;-75
2023/04/25 11:07:09;;;;;;;7.70;2.60;;;;;;;;;;5137065;27;20521;-64
2023/04/25 11:09:38;;;;;;;8.27;1.90;;;;;;;;;;5136738;27;20026;-72
2023/04/25 11:12:04;;;;;;;10.48;2.25;;;;;;;;;;5136919;27;20071;-70
2023/04/25 11:14:30;;;;;;;7.50;2.40;;;;;;;;;;5136401;27;20038;-65
2023/04/25 11:16:57;;;;;;;9.70;2.60;;;;;;;;;;5136515;27;20031;-74
2023/04/25 11:19:24;;;;;;;5.70;2.30;;;;;;;;;;5136651;27;20023;-71
2023/04/25 11:21:49;;;;;;;7.55;2.45;;;;;;;;;;5136456;27;20023;-73
2023/04/25 11:24:18;;;;;;;10.02;2.20;;;;;;;;;;5135934;27;20031;-68
2023/04/25 11:26:47;;;;;;;14.85;2.15;;;;;;;;;;5136224;27;20023;-72
2023/04/25 11:29:12;;;;;;;6.88;2.00;;;;;;;;;;5136115;27;20080;-70
2023/04/25 11:31:38;;;;;;;11.13;2.13;;;;;;;;;;5139885;27;20027;-69
2023/04/25 11:34:03;;;;;;;8.63;2.08;;;;;;;;;;5135928;27;20047;-66
2023/04/25 11:36:30;;;;;;;8.45;1.85;;;;;;;;;;5135938;27;20027;-71
2023/04/25 11:38:56;;;;;;;9.40;1.77;;;;;;;;;;5137492;27;20438;-67
2023/04/25 11:41:22;;;;;;;9.73;2.10;;;;;;;;;;5136735;27;20061;-72
2023/04/25 11:43:48;;;;;;;12.30;1.67;;;;;;;;;;5135977;27;20027;-71
2023/04/25 11:46:15;;;;;;;9.90;2.08;;;;;;;;;;5134410;27;20035;-73
2023/04/25 11:48:41;;;;;;;6.70;1.55;;;;;;;;;;5135784;27;20020;-70
2023/04/25 11:51:07;;;;;;;9.05;2.20;;;;;;;;;;5135129;27;20144;-72
2023/04/25 11:53:33;;;;;;;4.30;1.60;;;;;;;;;;5135774;27;20075;-68
2023/04/25 11:55:59;;;;;;;9.20;1.98;;;;;;;;;;5135594;27;20026;-67
2023/04/25 11:58:25;;;;;;;5.35;1.75;;;;;;;;;;5135804;27;20034;-70
2023/04/25 12:00:51;;;;;;;8.38;1.73;;;;;;;;;;5135694;27;20023;-63
2023/04/25 12:03:17;;;;;;;10.13;2.13;;;;;;;;;;5135554;27;20030;-66
2023/04/25 12:05:45;;;;;;;6.57;2.38;;;;;;;;;;5135188;27;20084;-66
2023/04/25 12:08:15;;;;;;;8.25;2.10;;;;;;;;;;5135451;27;20482;-73
2023/04/25 12:10:41;;;;;;;;;;;;;;;;;;5135478;27;20419;-72
2023/04/25 12:13:24;;;;;;;17.50;6.30;;;;;;;;;;5135723;27;19911;-73
2023/04/25 12:15:50;;;;;;;7.13;2.10;;;;;;;;;;5135263;27;20027;-66
2023/04/25 12:18:20;;;;;;;3.72;1.48;;;;;;;;;;5135198;27;20027;-71
2023/04/25 12:20:46;;;;;;;7.05;2.20;;;;;;;;;;5135275;27;20102;-64
2023/04/25 12:23:12;;;;;;;9.05;1.70;;;;;;;;;;5135225;27;20115;-73
2023/04/25 12:25:40;;;;;;;13.30;2.30;;;;;;;;;;5135148;27;20039;-71
2023/04/25 12:28:11;;;;;;;9.60;2.33;;;;;;;;;;5135315;27;20427;-65
2023/04/25 12:31:02;;;;;;;8.57;2.28;;;;;;;;;;5134930;27;20025;-68
2023/04/25 12:33:30;;;;;;;4.72;2.35;;;;;;;;;;5132692;27;20046;-64
2023/04/25 12:35:57;;;;;;;8.32;2.17;;;;;;;;;;5134799;27;20112;-64
2023/04/25 12:38:30;;;;;;;7.78;2.35;;;;;;;;;;5134709;27;20042;-65
2023/04/25 12:40:59;;;;;;;10.25;2.83;;;;;;;;;;5134875;27;20023;-66
2023/04/25 12:43:25;;;;;;;5.47;1.95;;;;;;;;;;5134845;27;20028;-68
2023/04/25 12:45:52;;;;;;;12.32;3.35;;;;;;;;;;5134844;27;20027;-69
2023/04/25 12:48:18;;;;;;;7.30;2.05;;;;;;;;;;5134375;27;20027;-67
2023/04/25 12:50:44;;;;;;;7.28;1.80;;;;;;;;;;5134366;27;20035;-62
2023/04/25 12:53:11;;;;;;;12.23;4.07;;;;;;;;;;5134461;27;20477;-70
2023/04/25 12:55:37;;;;;;;8.43;2.30;;;;;;;;;;5133095;27;20027;-71
2023/04/25 12:58:03;;;;;;;9.25;2.40;;;;;;;;;;5134695;27;20505;-67
2023/04/25 13:00:29;;;;;;;7.93;2.03;;;;;;;;;;5132925;27;20031;-64
2023/04/25 13:02:54;;;;;;;9.40;2.50;;;;;;;;;;5134122;27;20047;-65
2023/04/25 13:05:19;;;;;;;7.97;2.38;;;;;;;;;;5133947;27;20490;-67
2023/04/25 13:07:45;;;;;;;6.40;2.08;;;;;;;;;;5134177;27;20023;-71
2023/04/25 13:10:11;;;;;;;7.00;2.10;;;;;;;;;;5134194;27;20058;-64
2023/04/25 13:12:36;;;;;;;9.57;1.95;;;;;;;;;;5134270;27;20072;-72
2023/04/25 13:15:02;;;;;;;10.43;2.13;;;;;;;;;;5134245;27;20034;-73
2023/04/25 13:17:27;;;;;;;12.00;2.50;;;;;;;;;;5133979;27;20499;-72
2023/04/25 13:19:53;;;;;;;10.10;2.30;;;;;;;;;;5134367;27;20378;-74
2023/04/25 13:22:19;;;;;;;9.23;2.38;;;;;;;;;;5133137;27;20027;-73
2023/04/25 13:24:45;;;;;;;13.40;3.30;;;;;;;;;;5134441;27;20023;-74
2023/04/25 13:27:11;;;;;;;5.05;1.52;;;;;;;;;;5134708;27;20469;-75
2023/04/25 13:29:38;;;;;;;6.75;2.00;;;;;;;;;;5135026;27;20027;-74
2023/04/25 13:32:03;;;;;;;10.32;2.30;;;;;;;;;;5138038;27;20034;-74
2023/04/25 13:34:30;;;;;;;5.13;1.80;;;;;;;;;;5134441;27;20026;-66
2023/04/25 13:36:55;;;;;;;8.60;2.25;;;;;;;;;;5134307;27;20060;-68
2023/04/25 13:39:21;;;;;;;8.18;2.10;;;;;;;;;;5134333;27;20107;-75
2023/04/25 13:41:47;;;;;;;9.07;2.30;;;;;;;;;;5134902;27;20485;-66
2023/04/25 13:44:12;;;;;;;9.30;2.15;;;;;;;;;;5134149;27;20485;-72
2023/04/25 13:46:38;;;;;;;12.32;2.83;;;;;;;;;;5135269;27;20027;-71
2023/04/25 13:49:04;;;;;;;7.47;1.95;;;;;;;;;;5134881;27;20106;-72
2023/04/25 13:51:30;;;;;;;7.28;2.03;;;;;;;;;;5135073;27;20354;-76
2023/04/25 13:53:56;;;;;;;10.38;2.60;;;;;;;;;;5135050;27;20493;-78
2023/04/25 13:56:23;;;;;;;7.85;1.75;;;;;;;;;;5134260;27;20059;-75
2023/04/25 13:58:48;;;;;;;17.42;3.15;;;;;;;;;;5134298;27;20058;-70
2023/04/25 14:01:14;;;;;;;5.20;1.85;;;;;;;;;;5135167;27;20031;-72
2023/04/25 14:03:41;;;;;;;8.02;1.88;;;;;;;;;;5135160;27;20030;-73
2023/04/25 14:06:06;;;;;;;7.95;2.30;;;;;;;;;;5135019;27;20027;-72
2023/04/25 14:08:32;;;;;;;15.23;2.25;;;;;;;;;;5137050;27;20034;-78
2023/04/25 14:10:57;;;;;;;6.90;2.30;;;;;;;;;;5135780;27;20027;-74
2023/04/25 14:13:23;;;;;;;6.13;2.03;;;;;;;;;;5135066;27;20023;-75
2023/04/25 14:15:50;;;;;;;9.00;2.50;;;;;;;;;;5134341;27;20180;-75
2023/04/25 14:18:15;;;;;;;10.32;2.20;;;;;;;;;;5132754;27;20063;-68
2023/04/25 14:20:41;;;;;;;10.18;1.95;;;;;;;;;;5133742;27;20539;-78
2023/04/25 14:23:06;;;;;;;7.72;2.20;;;;;;;;;;5133434;27;20027;-73
2023/04/25 14:25:32;;;;;;;11.10;2.83;;;;;;;;;;5135163;27;20038;-78
2023/04/25 14:27:57;;;;;;;8.43;2.42;;;;;;;;;;5135168;27;20357;-75
2023/04/25 14:30:23;;;;;;;7.95;2.25;;;;;;;;;;5134064;27;20047;-77
2023/04/25 14:32:49;;;;;;;6.43;2.22;;;;;;;;;;5137970;27;20039;-79
2023/04/25 14:35:15;;;;;;;7.00;2.50;;;;;;;;;;5138260;27;20023;-75
2023/04/25 14:37:41;;;;;;;9.15;2.22;;;;;;;;;;5138839;27;20110;-80